Time;durP1;ratioP1;P1;durP2;ratioP2;P2;SDS_P1;SDS_P2;PMS_P1;PMS_P2;Temp;Humidity;BMP_temperature;BMP_pressure;BME280_temperature;BME280_humidity;BME280_pressure;Samples;Min_cycle;Max_cycle;Signal;HPM_P1;HPM_P2
2022/05/04 00:00:25;;;;;;;8.27;3.00;;;12.10;57.00;;;;;;5072427;28;20029;-74
2022/05/04 00:02:52;;;;;;;7.50;3.45;;;12.10;57.10;;;;;;5073006;28;20033;-74
2022/05/04 00:05:18;;;;;;;;;;;12.00;56.80;;;;;;5071904;28;20390;-79
2022/05/04 00:07:45;;;;;;;8.40;3.85;;;12.00;56.00;;;;;;5073780;28;20328;-79
2022/05/04 00:10:14;;;;;;;12.32;4.10;;;12.00;56.70;;;;;;5072154;28;20119;-74
2022/05/04 00:12:40;;;;;;;7.55;3.63;;;12.00;57.10;;;;;;5072724;28;20044;-74
2022/05/04 00:15:08;;;;;;;6.97;3.47;;;12.00;57.10;;;;;;5072118;28;20060;-75
2022/05/04 00:17:34;;;;;;;6.43;3.53;;;12.00;57.10;;;;;;5074064;28;20457;-74
2022/05/04 00:20:00;;;;;;;5.22;2.80;;;11.90;57.30;;;;;;5055132;28;20054;-79
2022/05/04 00:22:27;;;;;;;5.78;3.10;;;11.90;57.30;;;;;;5055017;28;20477;-80
2022/05/04 00:24:53;;;;;;;5.45;3.20;;;11.90;57.40;;;;;;5055860;28;20110;-80
2022/05/04 00:27:19;;;;;;;12.07;3.70;;;11.80;57.30;;;;;;5071589;28;20054;-76
2022/05/04 00:29:46;;;;;;;7.72;3.33;;;11.80;57.20;;;;;;5072299;28;20032;-75
2022/05/04 00:32:14;;;;;;;6.78;3.50;;;11.80;57.30;;;;;;5073331;28;20044;-74
2022/05/04 00:34:40;;;;;;;6.22;3.28;;;11.80;57.30;;;;;;5071302;28;20028;-80
2022/05/04 00:37:17;;;;;;;6.30;3.53;;;11.80;57.60;;;;;;5073320;28;20040;-75
2022/05/04 00:39:47;;;;;;;6.38;3.17;;;11.80;57.60;;;;;;5072094;28;20052;-80
2022/05/04 00:42:36;;;;;;;7.20;3.30;;;11.70;57.50;;;;;;5055126;28;20452;-75
2022/05/04 00:45:02;;;;;;;6.78;3.78;;;11.70;57.60;;;;;;5072160;28;20111;-80
2022/05/04 00:47:28;;;;;;;;;;;11.60;56.90;;;;;;5072363;28;20055;-80
2022/05/04 00:49:55;;;;;;;8.15;3.40;;;11.70;57.50;;;;;;5071094;28;20011;-78
2022/05/04 00:52:21;;;;;;;6.57;3.72;;;11.60;57.40;;;;;;5070654;28;20111;-75
2022/05/04 00:54:50;;;;;;;7.95;3.92;;;11.60;57.70;;;;;;5072003;28;20481;-79
2022/05/04 01:00:08;;;;;;;6.57;3.72;;;11.60;58.00;;;;;;5073109;28;20478;-80
2022/05/04 01:02:37;;;;;;;8.60;4.00;;;11.50;58.00;;;;;;5055209;28;20037;-74
2022/05/04 01:05:03;;;;;;;6.72;3.67;;;11.50;57.80;;;;;;5070783;28;20052;-80
2022/05/04 01:07:30;;;;;;;9.48;4.22;;;11.50;57.50;;;;;;5071279;28;20131;-79
2022/05/04 01:09:56;;;;;;;6.57;4.05;;;11.50;58.10;;;;;;5072892;28;20536;-80
2022/05/04 01:12:23;;;;;;;6.63;3.70;;;11.50;58.10;;;;;;5054686;28;20040;-75
2022/05/04 01:14:49;;;;;;;9.73;3.88;;;11.40;58.10;;;;;;5072838;28;20082;-74
2022/05/04 01:17:15;;;;;;;11.07;4.32;;;11.40;58.30;;;;;;5070834;28;20047;-80
2022/05/04 01:19:41;;;;;;;8.93;3.75;;;11.40;58.30;;;;;;5070575;28;20037;-79
2022/05/04 01:22:11;;;;;;;11.32;3.70;;;11.40;58.30;;;;;;5070978;28;20394;-80
2022/05/04 01:24:39;;;;;;;7.85;3.53;;;11.30;58.30;;;;;;5071517;28;20089;-80
2022/05/04 01:27:11;;;;;;;6.22;3.63;;;11.30;57.90;;;;;;5054326;28;20040;-75
2022/05/04 01:29:38;;;;;;;8.57;3.78;;;11.30;58.40;;;;;;5054785;28;20306;-80
2022/05/04 01:32:05;;;;;;;6.20;3.63;;;11.20;57.80;;;;;;5070963;28;20123;-80
2022/05/04 01:34:31;;;;;;;7.72;3.58;;;11.20;58.00;;;;;;5053636;28;20036;-75
2022/05/04 01:37:00;;;;;;;8.13;4.07;;;11.10;58.40;;;;;;5071028;28;20040;-80
2022/05/04 01:39:26;;;;;;;9.13;4.03;;;11.00;58.40;;;;;;5054491;28;20047;-79
2022/05/04 01:44:37;;;;;;;6.90;3.67;;;10.90;58.60;;;;;;5072653;28;20059;-74
2022/05/04 01:47:03;;;;;;;7.03;3.63;;;10.80;58.70;;;;;;5072225;28;20473;-74
2022/05/04 01:49:29;;;;;;;;;;;10.70;58.10;;;;;;5070824;28;20032;-74
2022/05/04 01:52:01;;;;;;;5.60;3.05;;;10.60;58.10;;;;;;5070884;28;19920;-80
2022/05/04 01:54:29;;;;;;;6.65;3.33;;;10.60;58.20;;;;;;5071338;28;20470;-74
2022/05/04 01:56:55;;;;;;;9.98;4.05;;;10.60;58.40;;;;;;5070751;28;20048;-80
2022/05/04 01:59:22;;;;;;;7.97;4.20;;;10.50;58.60;;;;;;5071209;28;20037;-80
2022/05/04 02:01:50;;;;;;;5.93;3.53;;;10.50;58.70;;;;;;5072154;28;20075;-74
2022/05/04 02:04:18;;;;;;;6.43;3.47;;;10.50;58.40;;;;;;5075001;28;20032;-80
2022/05/04 02:06:44;;;;;;;9.15;4.30;;;10.50;58.70;;;;;;5057061;28;20033;-80
2022/05/04 02:09:33;;;;;;;7.75;4.43;;;10.50;58.10;;;;;;5075011;28;20025;-80
2022/05/04 02:12:09;;;;;;;7.10;4.28;;;10.50;58.30;;;;;;5061242;28;20037;-79
2022/05/04 02:14:40;;;;;;;7.90;4.17;;;10.50;58.70;;;;;;5074853;28;20020;-80
2022/05/04 02:17:07;;;;;;;7.80;3.85;;;10.50;58.60;;;;;;5074522;28;20036;-75
2022/05/04 02:19:33;;;;;;;7.07;3.92;;;10.40;58.60;;;;;;5074102;28;20051;-74
2022/05/04 02:21:59;;;;;;;7.43;3.40;;;10.40;58.80;;;;;;5074060;28;20114;-74
2022/05/04 02:24:25;;;;;;;9.25;3.22;;;10.40;58.80;;;;;;5057970;28;20060;-74
2022/05/04 02:26:54;;;;;;;7.80;3.60;;;10.40;58.80;;;;;;5074358;28;20036;-74
2022/05/04 02:29:20;;;;;;;6.65;3.30;;;10.40;58.90;;;;;;5075765;28;20375;-79
2022/05/04 02:31:48;;;;;;;6.53;3.38;;;10.40;59.10;;;;;;5075667;28;20036;-74
2022/05/04 02:34:14;;;;;;;7.30;3.00;;;10.30;59.10;;;;;;5074501;28;20032;-79
2022/05/04 02:39:25;;;;;;;8.05;3.58;;;10.30;59.20;;;;;;5074416;28;20040;-74
2022/05/04 02:41:52;;;;;;;6.13;3.40;;;10.30;59.30;;;;;;5073728;28;20043;-74
2022/05/04 02:44:18;;;;;;;11.80;6.40;;;10.30;59.30;;;;;;5057754;28;20068;-74
2022/05/04 02:46:48;;;;;;;11.43;7.10;;;10.30;59.20;;;;;;5075367;28;20067;-80
2022/05/04 02:49:15;;;;;;;9.65;5.45;;;10.30;59.40;;;;;;5074115;28;20032;-74
2022/05/04 02:51:42;;;;;;;12.32;6.07;;;10.30;59.50;;;;;;5072905;28;20051;-75
2022/05/04 02:54:08;;;;;;;10.07;6.20;;;10.30;59.60;;;;;;5075408;28;20032;-74
2022/05/04 02:56:34;;;;;;;;;;;10.30;59.60;;;;;;5057537;28;20044;-80
2022/05/04 02:59:00;;;;;;;8.00;4.43;;;10.20;59.10;;;;;;5074190;28;20323;-75
2022/05/04 03:04:11;;;;;;;9.55;4.18;;;10.10;59.00;;;;;;5074205;28;20543;-74
2022/05/04 03:06:56;;;;;;;8.98;3.10;;;10.10;59.60;;;;;;5072449;28;20492;-74
2022/05/04 03:09:22;;;;;;;7.30;3.90;;;10.10;59.80;;;;;;5073932;28;20501;-80
2022/05/04 03:11:57;;;;;;;10.65;3.30;;;10.10;59.70;;;;;;5073590;28;20040;-80
2022/05/04 03:14:27;;;;;;;11.25;3.63;;;10.10;59.70;;;;;;5074103;28;20044;-80
2022/05/04 03:16:57;;;;;;;8.57;3.40;;;10.00;59.70;;;;;;5073787;28;20102;-75
2022/05/04 03:19:26;;;;;;;8.70;3.13;;;10.00;59.70;;;;;;5073651;28;20115;-79
2022/05/04 03:21:53;;;;;;;11.35;4.00;;;9.90;59.70;;;;;;5073524;28;20033;-74
2022/05/04 03:24:19;;;;;;;6.00;3.20;;;9.80;59.60;;;;;;5073528;28;20046;-80
2022/05/04 03:26:46;;;;;;;9.43;3.08;;;9.80;59.10;;;;;;5074638;28;20423;-74
2022/05/04 03:29:12;;;;;;;;;;;9.80;59.70;;;;;;5057296;28;20032;-80
2022/05/04 03:31:39;;;;;;;8.77;3.70;;;9.70;59.40;;;;;;5056378;28;20474;-74
2022/05/04 03:34:34;;;;;;;6.05;3.40;;;9.60;59.60;;;;;;5056709;28;20044;-74
2022/05/04 03:37:10;;;;;;;6.75;3.10;;;9.50;59.60;;;;;;5072423;28;20044;-80
2022/05/04 03:39:36;;;;;;;6.05;3.08;;;9.50;59.80;;;;;;5073349;28;20035;-79
2022/05/04 03:42:03;;;;;;;9.13;3.50;;;9.40;59.70;;;;;;5073001;28;20410;-80
2022/05/04 03:44:32;;;;;;;9.85;3.47;;;9.30;59.50;;;;;;5073301;28;20036;-80
2022/05/04 03:46:58;;;;;;;10.85;3.92;;;9.40;60.00;;;;;;5072850;28;20063;-74
2022/05/04 03:49:24;;;;;;;10.10;3.10;;;9.40;59.90;;;;;;5072881;28;20025;-80
2022/05/04 03:51:52;;;;;;;8.80;3.45;;;9.40;59.80;;;;;;5071838;28;20076;-74
2022/05/04 03:54:18;;;;;;;9.90;3.50;;;9.40;59.60;;;;;;5073083;28;20107;-80
2022/05/04 03:56:44;;;;;;;7.15;3.08;;;9.40;59.70;;;;;;5055867;28;20040;-74
2022/05/04 03:59:10;;;;;;;5.90;3.25;;;9.40;59.70;;;;;;5073171;28;20077;-80
2022/05/04 04:01:37;;;;;;;7.03;3.47;;;9.40;59.70;;;;;;5072536;28;20371;-80
2022/05/04 04:04:03;;;;;;;5.53;3.30;;;9.50;59.60;;;;;;5056204;28;20097;-74
2022/05/04 04:09:20;;;;;;;6.35;3.17;;;9.50;59.70;;;;;;5072947;28;20036;-80
2022/05/04 04:11:48;;;;;;;8.77;3.47;;;9.60;59.80;;;;;;5073725;28;20036;-75
2022/05/04 04:14:37;;;;;;;7.13;3.60;;;9.60;60.70;;;;;;5072541;28;20063;-79
2022/05/04 04:17:04;;;;;;;8.82;3.33;;;9.60;59.80;;;;;;5058446;28;20040;-74
2022/05/04 04:19:30;;;;;;;8.00;3.08;;;9.70;59.30;;;;;;5072547;28;20029;-75
2022/05/04 04:21:56;;;;;;;6.15;3.40;;;9.70;59.90;;;;;;5072277;28;20028;-79
2022/05/04 04:24:25;;;;;;;10.38;3.40;;;9.70;60.10;;;;;;5073673;28;20035;-74
2022/05/04 04:26:51;;;;;;;8.93;3.67;;;9.70;60.00;;;;;;5073286;28;20086;-74
2022/05/04 04:32:04;;;;;;;7.07;3.40;;;9.80;60.00;;;;;;5071974;28;20467;-79
2022/05/04 04:34:33;;;;;;;8.23;3.63;;;9.80;60.00;;;;;;5073310;28;20147;-75
2022/05/04 04:36:59;;;;;;;7.55;3.40;;;9.80;60.40;;;;;;5072172;28;20123;-75
2022/05/04 04:39:25;;;;;;;6.75;3.78;;;9.80;61.30;;;;;;5073406;28;20039;-79
2022/05/04 04:41:51;;;;;;;7.10;4.05;;;9.80;60.70;;;;;;5071695;28;20566;-79
2022/05/04 04:44:17;;;;;;;9.50;4.45;;;9.90;60.80;;;;;;5071999;28;20052;-79
2022/05/04 04:46:46;;;;;;;22.48;5.22;;;9.90;60.70;;;;;;5071652;28;20045;-74
2022/05/04 04:49:12;;;;;;;12.13;4.93;;;9.90;61.00;;;;;;5071883;28;20039;-79
2022/05/04 04:51:38;;;;;;;7.65;4.10;;;10.00;61.00;;;;;;5070671;28;20036;-75
2022/05/04 04:54:04;;;;;;;8.98;4.35;;;10.10;61.00;;;;;;5071524;28;20041;-79
2022/05/04 04:56:30;;;;;;;7.47;4.65;;;10.20;60.90;;;;;;5071232;28;20068;-74
2022/05/04 04:58:56;;;;;;;8.05;4.82;;;10.20;60.90;;;;;;5073508;28;20048;-79
2022/05/04 05:01:23;;;;;;;14.80;5.10;;;10.20;61.00;;;;;;5054686;28;20043;-78
2022/05/04 05:03:49;;;;;;;8.80;5.05;;;10.30;61.20;;;;;;5071808;28;20375;-79
2022/05/04 05:06:15;;;;;;;8.30;5.07;;;10.30;61.30;;;;;;5071852;28;20414;-79
2022/05/04 05:08:48;;;;;;;8.13;4.80;;;10.40;61.30;;;;;;5073020;28;20067;-78
2022/05/04 05:11:14;;;;;;;7.78;5.00;;;10.50;61.20;;;;;;5071405;28;20060;-78
2022/05/04 05:16:25;;;;;;;8.02;5.50;;;10.70;61.20;;;;;;5072344;28;20531;-74
2022/05/04 05:18:51;;;;;;;11.77;5.85;;;10.70;61.30;;;;;;5054860;28;20059;-74
2022/05/04 05:21:18;;;;;;;11.05;6.18;;;10.80;61.30;;;;;;5053349;28;20274;-78
2022/05/04 05:23:44;;;;;;;10.10;6.10;;;10.70;61.70;;;;;;5071587;28;20052;-74
2022/05/04 05:26:10;;;;;;;16.35;7.50;;;10.80;62.10;;;;;;5072271;28;20043;-78
2022/05/04 05:28:36;;;;;;;13.05;6.68;;;10.80;62.00;;;;;;5072657;28;20036;-74
2022/05/04 05:31:03;;;;;;;10.85;6.15;;;10.90;62.00;;;;;;5071030;28;20028;-74
2022/05/04 05:33:34;;;;;;;12.95;5.88;;;10.90;62.10;;;;;;5072847;28;20074;-74
2022/05/04 05:36:03;;;;;;;11.77;6.95;;;11.00;62.10;;;;;;5071008;28;20033;-78
2022/05/04 05:38:29;;;;;;;8.65;5.43;;;11.20;61.80;;;;;;5069990;28;20401;-78
2022/05/04 05:41:08;;;;;;;10.00;6.15;;;11.30;61.60;;;;;;5072177;28;20035;-78
2022/05/04 05:43:34;;;;;;;11.73;8.48;;;11.30;61.60;;;;;;5054548;28;20037;-75
2022/05/04 05:46:00;;;;;;;9.75;6.18;;;11.40;62.80;;;;;;5070784;28;20036;-78
2022/05/04 05:48:34;;;;;;;12.23;7.60;;;11.40;61.80;;;;;;5054375;28;20094;-78
2022/05/04 05:51:19;;;;;;;12.70;7.35;;;11.50;61.40;;;;;;5072101;28;20108;-77
2022/05/04 05:53:45;;;;;;;11.35;7.25;;;11.50;61.90;;;;;;5070746;28;20040;-75
2022/05/04 05:56:11;;;;;;;11.65;7.05;;;11.60;61.70;;;;;;5070714;28;20040;-74
2022/05/04 05:58:37;;;;;;;11.07;6.85;;;11.70;61.70;;;;;;5071136;28;20033;-79
2022/05/04 06:01:04;;;;;;;11.52;7.55;;;11.70;61.60;;;;;;5071919;28;20041;-74
2022/05/04 06:03:33;;;;;;;11.55;6.78;;;11.80;61.40;;;;;;5072317;28;20074;-78
2022/05/04 06:05:59;;;;;;;12.45;7.30;;;11.90;61.60;;;;;;5072164;28;20474;-74
2022/05/04 06:08:25;;;;;;;9.82;6.38;;;12.00;61.40;;;;;;5069985;28;20044;-78
2022/05/04 06:10:51;;;;;;;11.57;6.90;;;12.10;61.30;;;;;;5053839;28;20486;-78
2022/05/04 06:13:18;;;;;;;12.07;7.90;;;12.20;61.10;;;;;;5070896;28;20513;-74
2022/05/04 06:15:45;;;;;;;11.75;7.43;;;12.30;61.10;;;;;;5071770;28;20445;-74
2022/05/04 06:18:14;;;;;;;11.98;7.45;;;12.30;61.20;;;;;;5071070;28;20080;-75
2022/05/04 06:20:40;;;;;;;8.93;6.10;;;12.40;61.10;;;;;;5070561;28;20035;-74
2022/05/04 06:23:09;;;;;;;11.90;7.57;;;12.50;61.00;;;;;;5069760;28;20063;-74
2022/05/04 06:25:36;;;;;;;9.82;6.47;;;12.60;60.90;;;;;;5070478;28;20551;-78
2022/05/04 06:28:03;;;;;;;10.10;6.13;;;12.80;61.00;;;;;;5071130;28;20051;-74
2022/05/04 06:35:59;;;;;;;13.40;5.28;;;13.10;60.50;;;;;;5070466;28;20094;-74
2022/05/04 06:38:28;;;;;;;12.40;5.47;;;13.20;60.20;;;;;;5069696;28;20493;-79
2022/05/04 06:40:54;;;;;;;14.20;5.78;;;13.30;60.40;;;;;;5070201;28;20119;-74
2022/05/04 06:43:23;;;;;;;10.68;6.32;;;13.40;59.60;;;;;;5054028;28;20029;-74
2022/05/04 06:45:49;;;;;;;22.92;11.65;;;13.50;60.50;;;;;;5070283;28;20036;-74
2022/05/04 06:48:15;;;;;;;15.10;6.75;;;13.70;60.10;;;;;;5053920;28;20083;-74
2022/05/04 06:50:42;;;;;;;8.00;5.18;;;14.00;59.80;;;;;;5073125;28;20036;-78
2022/05/04 06:53:10;;;;;;;10.77;5.45;;;14.20;59.50;;;;;;5073337;28;20044;-78
2022/05/04 06:55:36;;;;;;;10.02;5.40;;;14.40;59.20;;;;;;5073768;28;20032;-74
2022/05/04 06:58:05;;;;;;;8.32;5.28;;;14.70;58.90;;;;;;5075688;28;20036;-78
2022/05/04 07:00:31;;;;;;;14.30;7.50;;;14.80;58.70;;;;;;5073755;28;20116;-74
2022/05/04 07:02:59;;;;;;;9.25;5.60;;;15.10;58.40;;;;;;5074135;28;20029;-78
2022/05/04 07:05:25;;;;;;;12.38;6.97;;;15.20;57.90;;;;;;5073486;28;20079;-74
2022/05/04 07:07:53;;;;;;;16.20;8.35;;;15.50;57.90;;;;;;5049458;28;20048;-74
2022/05/04 07:10:19;;;;;;;11.00;5.57;;;15.70;57.30;;;;;;5053408;28;20029;-78
2022/05/04 07:12:46;;;;;;;7.75;5.28;;;16.00;56.90;;;;;;5053956;28;20045;-79
2022/05/04 07:15:12;;;;;;;;;;;16.40;56.20;;;;;;5053915;28;20029;-78
2022/05/04 07:17:38;;;;;;;9.90;4.90;;;16.70;56.50;;;;;;5055167;28;19921;-78
2022/05/04 07:20:04;;;;;;;9.00;5.22;;;16.90;56.30;;;;;;5054832;28;20029;-78
2022/05/04 07:22:30;;;;;;;8.48;4.63;;;17.10;55.10;;;;;;5057329;28;20656;-74
2022/05/04 07:24:56;;;;;;;6.82;4.28;;;17.20;55.00;;;;;;5056922;28;20036;-77
2022/05/04 07:27:22;;;;;;;8.45;4.72;;;17.30;54.70;;;;;;5074616;28;20045;-74
2022/05/04 07:29:49;;;;;;;10.70;4.82;;;17.30;54.60;;;;;;5073936;28;20083;-75
2022/05/04 07:32:15;;;;;;;8.07;4.68;;;17.30;54.60;;;;;;5073209;28;20048;-74
2022/05/04 07:34:41;;;;;;;7.80;4.45;;;17.40;53.90;;;;;;5073484;28;20031;-75
2022/05/04 07:37:08;;;;;;;11.50;5.07;;;17.40;53.00;;;;;;5056214;28;20427;-75
2022/05/04 07:47:52;;;;;;;8.10;4.30;;;18.30;50.60;;;;;;5073210;28;20115;-79
2022/05/04 07:50:30;;;;;;;8.10;4.35;;;18.60;50.70;;;;;;5055971;28;20047;-78
2022/05/04 07:52:56;;;;;;;7.10;3.78;;;19.00;50.40;;;;;;5072192;28;20504;-75
2022/05/04 07:55:22;;;;;;;;;;;19.60;50.50;;;;;;5074365;28;20041;-74
2022/05/04 07:57:51;;;;;;;10.80;4.50;;;20.00;52.00;;;;;;5056069;28;19928;-75
2022/05/04 08:05:49;;;;;;;11.75;4.30;;;21.80;47.80;;;;;;5073699;28;20071;-80
2022/05/04 08:08:15;;;;;;;;;;;22.50;47.00;;;;;;5072278;28;20531;-79
2022/05/04 08:10:41;;;;;;;7.25;3.17;;;23.10;49.30;;;;;;5072271;28;19912;-80
2022/05/04 08:13:07;;;;;;;6.57;3.38;;;23.70;43.60;;;;;;5074271;28;20119;-79
2022/05/04 08:15:34;;;;;;;6.60;3.85;;;24.30;42.50;;;;;;5073463;28;20046;-79
2022/05/04 08:18:02;;;;;;;8.52;3.17;;;24.90;40.60;;;;;;5072492;28;20434;-74
2022/05/04 08:20:29;;;;;;;8.43;3.67;;;25.70;39.40;;;;;;5073360;28;20020;-79
2022/05/04 08:22:57;;;;;;;8.93;4.28;;;26.10;38.00;;;;;;5072706;28;20207;-75
2022/05/04 08:25:24;;;;;;;5.95;3.13;;;26.80;36.40;;;;;;5055216;28;20032;-75
2022/05/04 08:27:50;;;;;;;6.30;3.40;;;27.50;35.40;;;;;;5073863;28;20104;-75
2022/05/04 08:30:17;;;;;;;8.00;3.20;;;28.10;34.60;;;;;;5071832;28;20460;-79
2022/05/04 08:33:07;;;;;;;5.78;3.25;;;28.90;32.80;;;;;;5055753;28;20041;-75
2022/05/04 08:35:33;;;;;;;8.48;3.17;;;29.50;32.50;;;;;;5071959;28;20067;-79
2022/05/04 08:37:59;;;;;;;5.85;3.28;;;30.20;30.00;;;;;;5072689;28;20456;-75
2022/05/04 08:40:29;;;;;;;7.47;3.00;;;30.60;28.90;;;;;;5072858;28;20036;-79
2022/05/04 08:42:57;;;;;;;5.28;2.78;;;31.10;28.40;;;;;;5073686;28;20159;-79
2022/05/04 08:45:24;;;;;;;7.25;2.78;;;31.70;27.00;;;;;;5071539;28;20032;-75
2022/05/04 08:47:51;;;;;;;5.80;2.80;;;32.20;25.90;;;;;;5055236;28;20085;-75
2022/05/04 08:50:18;;;;;;;6.63;3.17;;;32.50;24.50;;;;;;5071487;28;20032;-74
2022/05/04 08:55:30;;;;;;;4.95;2.80;;;33.20;23.80;;;;;;5071673;28;20046;-74
2022/05/04 08:57:57;;;;;;;6.28;2.92;;;33.70;23.20;;;;;;5071883;28;20064;-75
2022/05/04 09:00:24;;;;;;;4.93;2.75;;;34.30;21.60;;;;;;5071318;28;20116;-80
2022/05/04 09:02:51;;;;;;;4.75;2.55;;;34.60;20.70;;;;;;5071908;28;20040;-79
2022/05/04 09:05:54;;;;;;;4.85;2.63;;;34.90;19.90;;;;;;5072692;28;20031;-75
2022/05/04 09:08:23;;;;;;;6.45;2.70;;;35.50;21.30;;;;;;5071802;28;20042;-74
2022/05/04 09:10:59;;;;;;;6.32;2.70;;;36.20;20.10;;;;;;5072741;28;20381;-79
2022/05/04 09:13:25;;;;;;;5.65;2.97;;;36.60;19.20;;;;;;5070880;28;20028;-74
2022/05/04 09:15:55;;;;;;;5.60;3.08;;;37.20;19.00;;;;;;5070994;28;20025;-79
2022/05/04 09:18:23;;;;;;;5.97;2.80;;;37.70;18.00;;;;;;5072756;28;20033;-74
2022/05/04 09:23:40;;;;;;;6.05;2.95;;;38.80;17.50;;;;;;5071644;28;20453;-79
2022/05/04 09:26:06;;;;;;;5.25;2.63;;;39.40;17.50;;;;;;5072259;28;20035;-79
2022/05/04 09:28:32;;;;;;;5.13;2.67;;;39.90;17.10;;;;;;5072623;28;20516;-74
2022/05/04 09:31:06;;;;;;;5.25;2.85;;;40.40;16.40;;;;;;5070973;28;20039;-74
2022/05/04 09:33:35;;;;;;;5.05;2.58;;;40.60;15.60;;;;;;5054633;28;20025;-75
2022/05/04 09:36:04;;;;;;;6.25;3.20;;;41.10;15.30;;;;;;5070870;28;20020;-78
2022/05/04 09:46:54;;;;;;;4.90;2.80;;;42.20;13.50;;;;;;5072268;28;20126;-79
2022/05/04 09:49:27;;;;;;;4.53;2.80;;;42.50;13.70;;;;;;5072733;28;20150;-74
2022/05/04 09:51:54;;;;;;;4.65;2.60;;;42.20;13.50;;;;;;5070953;28;20043;-79
2022/05/04 09:54:43;;;;;;;6.68;2.88;;;42.60;13.30;;;;;;5066866;28;20025;-78
2022/05/04 09:57:09;;;;;;;8.70;2.85;;;43.40;13.60;;;;;;5071551;28;20044;-74
2022/05/04 09:59:39;;;;;;;5.25;2.78;;;44.10;13.00;;;;;;5054446;28;20024;-78
2022/05/04 10:02:09;;;;;;;4.65;2.45;;;44.60;12.00;;;;;;5070779;28;20074;-74
2022/05/04 10:04:36;;;;;;;4.60;2.08;;;45.00;11.80;;;;;;5071131;28;20029;-74
2022/05/04 10:07:04;;;;;;;5.25;2.03;;;45.30;10.80;;;;;;5053847;28;20039;-74
2022/05/04 10:09:33;;;;;;;5.47;2.60;;;45.50;10.60;;;;;;5061428;28;20041;-74
2022/05/04 10:12:00;;;;;;;6.32;2.35;;;45.70;9.80;;;;;;5052005;28;20481;-73
2022/05/04 10:14:29;;;;;;;4.13;2.10;;;46.10;10.10;;;;;;5052200;28;20075;-74
2022/05/04 10:17:33;;;;;;;4.53;2.67;;;46.30;9.60;;;;;;5050441;28;20095;-74
2022/05/04 10:20:20;;;;;;;4.50;2.08;;;46.70;10.50;;;;;;5051022;28;20047;-74
2022/05/04 10:23:43;;;;;;;3.88;2.20;;;46.50;9.30;;;;;;5050791;28;20103;-78
2022/05/04 10:26:12;;;;;;;4.47;2.45;;;46.40;10.10;;;;;;5054270;28;20064;-78
2022/05/04 10:31:28;;;;;;;4.03;2.28;;;46.50;8.90;;;;;;5054730;28;20539;-75
2022/05/04 10:33:56;;;;;;;4.20;2.38;;;46.50;9.10;;;;;;5055695;28;20041;-74
2022/05/04 10:36:45;;;;;;;4.63;2.80;;;47.10;9.40;;;;;;5055324;28;20094;-74
2022/05/04 10:39:22;;;;;;;6.80;2.67;;;47.90;9.20;;;;;;5057681;28;20032;-74
2022/05/04 10:41:50;;;;;;;6.38;2.30;;;48.40;9.00;;;;;;5075426;28;20473;-74
2022/05/04 10:44:17;;;;;;;6.75;3.22;;;48.80;8.20;;;;;;5057499;28;20036;-79
2022/05/04 10:47:03;;;;;;;5.28;2.35;;;49.30;8.00;;;;;;5073916;28;20033;-74
2022/05/04 10:49:58;;;;;;;4.78;2.50;;;49.70;8.10;;;;;;5057542;28;20093;-78
2022/05/04 10:52:27;;;;;;;;;;;50.20;7.70;;;;;;5057969;28;20400;-78
2022/05/04 10:54:54;;;;;;;6.13;3.08;;;50.70;8.20;;;;;;5073364;28;19916;-74
2022/05/04 10:57:42;;;;;;;3.80;2.50;;;50.70;7.80;;;;;;5073658;28;20412;-75
2022/05/04 11:00:10;;;;;;;4.20;2.50;;;50.90;7.00;;;;;;5057039;28;20071;-74
2022/05/04 11:02:57;;;;;;;6.47;2.75;;;51.00;6.60;;;;;;5074158;28;20120;-74
2022/05/04 11:05:23;;;;;;;3.42;2.47;;;51.50;7.10;;;;;;5074750;28;20029;-78
2022/05/04 11:07:50;;;;;;;6.75;3.20;;;51.80;6.70;;;;;;5057403;28;20044;-74
2022/05/04 11:10:17;;;;;;;4.20;2.80;;;52.20;7.50;;;;;;5073754;28;20029;-74
2022/05/04 11:12:43;;;;;;;4.65;3.00;;;52.20;7.60;;;;;;5074016;28;20179;-74
2022/05/04 11:15:12;;;;;;;4.78;3.20;;;52.50;6.90;;;;;;5074601;28;20086;-74
2022/05/04 11:17:38;;;;;;;4.45;3.05;;;52.60;7.60;;;;;;5073512;28;20040;-79
2022/05/04 11:20:11;;;;;;;7.45;3.00;;;52.80;6.50;;;;;;5074915;28;20071;-79
2022/05/04 11:22:39;;;;;;;4.78;3.20;;;52.80;6.30;;;;;;5073450;28;20064;-79
2022/05/04 11:25:07;;;;;;;4.65;2.85;;;53.40;6.20;;;;;;5072510;28;20028;-74
2022/05/04 11:27:35;;;;;;;3.97;2.70;;;53.50;6.50;;;;;;5073609;28;20040;-74
2022/05/04 11:30:20;;;;;;;5.15;3.53;;;53.40;6.50;;;;;;5074761;28;20128;-78
2022/05/04 11:32:51;;;;;;;4.50;3.13;;;53.30;7.10;;;;;;5073696;28;20060;-75
2022/05/04 11:35:17;;;;;;;4.80;3.08;;;53.80;6.60;;;;;;5072146;28;20039;-74
2022/05/04 11:37:43;;;;;;;5.35;3.05;;;54.20;7.10;;;;;;5073345;28;20498;-75
2022/05/04 11:40:14;;;;;;;4.55;3.10;;;54.40;7.10;;;;;;5055231;28;20036;-75
2022/05/04 11:42:41;;;;;;;4.20;3.17;;;54.60;6.30;;;;;;5073574;28;20036;-78
2022/05/04 11:45:08;;;;;;;6.05;3.17;;;54.70;6.40;;;;;;5072831;28;20024;-74
2022/05/04 11:47:35;;;;;;;4.95;3.17;;;54.80;6.30;;;;;;5074364;28;20549;-74
2022/05/04 11:50:05;;;;;;;4.50;3.47;;;55.00;6.50;;;;;;5074524;28;20024;-80
2022/05/04 11:52:31;;;;;;;5.03;3.70;;;54.90;5.90;;;;;;5074521;28;20036;-75
2022/05/04 11:55:16;;;;;;;6.35;4.18;;;55.10;6.50;;;;;;5073449;28;20032;-79
2022/05/04 11:57:49;;;;;;;;;;;55.40;6.20;;;;;;5073519;28;20075;-78
2022/05/04 12:00:17;;;;;;;4.82;3.25;;;55.80;7.00;;;;;;5073602;28;19913;-74
2022/05/04 12:02:44;;;;;;;5.05;3.42;;;55.90;5.40;;;;;;5074211;28;20048;-79
2022/05/04 12:05:10;;;;;;;4.85;4.20;;;55.50;5.30;;;;;;5073773;28;20031;-75
2022/05/04 12:07:37;;;;;;;5.22;3.47;;;54.90;5.50;;;;;;5072877;28;20123;-75
2022/05/04 12:10:04;;;;;;;4.65;3.33;;;53.10;5.50;;;;;;5055076;28;20119;-74
2022/05/04 12:12:33;;;;;;;6.05;3.00;;;50.20;6.80;;;;;;5055695;28;20071;-78
2022/05/04 12:15:06;;;;;;;6.13;3.35;;;48.30;7.40;;;;;;5056033;28;20028;-79
2022/05/04 12:17:36;;;;;;;6.30;2.80;;;48.20;8.00;;;;;;5074038;28;20041;-74
2022/05/04 12:20:04;;;;;;;5.10;2.80;;;47.50;7.90;;;;;;5074128;28;20114;-74
2022/05/04 12:22:33;;;;;;;5.00;2.60;;;46.50;8.30;;;;;;5055420;28;20117;-78
2022/05/04 12:25:06;;;;;;;6.60;3.20;;;47.30;8.50;;;;;;5072837;28;20047;-74
2022/05/04 12:27:38;;;;;;;3.97;2.33;;;47.20;8.30;;;;;;5072485;28;20082;-78
2022/05/04 12:35:43;;;;;;;7.95;2.60;;;51.00;7.50;;;;;;5073033;28;20102;-79
2022/05/04 12:38:29;;;;;;;3.83;2.07;;;51.80;6.50;;;;;;5071907;28;20044;-74
2022/05/04 12:40:55;;;;;;;3.70;2.70;;;52.20;7.10;;;;;;5050525;28;20033;-77
2022/05/04 12:43:22;;;;;;;4.70;3.00;;;52.90;6.00;;;;;;5052056;28;20037;-75
2022/05/04 12:45:48;;;;;;;5.47;3.15;;;53.40;6.20;;;;;;5051413;28;20119;-75
2022/05/04 12:48:14;;;;;;;6.20;2.83;;;53.80;6.20;;;;;;5068643;28;20037;-79
2022/05/04 12:50:40;;;;;;;3.75;2.30;;;54.40;6.00;;;;;;5052872;28;20029;-78
2022/05/04 12:53:06;;;;;;;4.18;2.53;;;54.90;5.60;;;;;;5068749;28;20047;-74
2022/05/04 12:58:17;;;;;;;5.55;3.50;;;56.10;6.20;;;;;;5071967;28;20052;-78
2022/05/04 13:00:44;;;;;;;3.92;2.95;;;56.60;5.90;;;;;;5071300;28;20029;-74
2022/05/04 13:03:12;;;;;;;4.05;3.10;;;54.60;5.60;;;;;;5055153;28;20040;-78
2022/05/04 13:05:57;;;;;;;4.30;3.13;;;52.40;6.50;;;;;;5072490;28;20024;-74
2022/05/04 13:08:23;;;;;;;5.60;2.88;;;51.10;6.80;;;;;;5072905;28;20109;-78
2022/05/04 13:10:53;;;;;;;4.10;2.78;;;51.90;6.60;;;;;;5053697;28;20550;-78
2022/05/04 13:13:39;;;;;;;4.35;2.90;;;51.80;5.70;;;;;;5055259;28;20485;-74
2022/05/04 13:16:05;;;;;;;3.83;2.58;;;52.10;7.00;;;;;;5071208;28;20032;-77
2022/05/04 13:18:31;;;;;;;4.85;2.42;;;51.70;6.00;;;;;;5071509;28;20060;-74
2022/05/04 13:20:58;;;;;;;4.10;2.60;;;50.90;6.40;;;;;;5071151;28;20070;-73
2022/05/04 13:23:24;;;;;;;4.05;2.42;;;49.30;6.90;;;;;;5071397;28;20048;-77
2022/05/04 13:25:50;;;;;;;3.88;2.00;;;46.80;8.30;;;;;;5069963;28;20111;-73
2022/05/04 13:28:20;;;;;;;3.50;2.00;;;44.80;9.00;;;;;;5072818;28;20045;-74
2022/05/04 13:30:46;;;;;;;7.50;2.50;;;43.20;8.90;;;;;;5043143;28;20021;-73
2022/05/04 13:33:12;;;;;;;4.70;2.00;;;42.40;9.30;;;;;;5034619;28;20040;-73
2022/05/04 13:35:39;;;;;;;3.42;1.92;;;41.60;10.30;;;;;;5052507;28;20390;-73
2022/05/04 13:38:08;;;;;;;8.27;2.30;;;40.70;10.50;;;;;;5051291;28;20044;-74
2022/05/04 13:40:35;;;;;;;5.03;1.83;;;39.80;11.80;;;;;;5053830;28;20049;-79
2022/05/04 13:43:01;;;;;;;3.85;2.13;;;39.30;12.10;;;;;;5073012;28;20074;-79
2022/05/04 13:45:27;;;;;;;4.05;2.35;;;38.40;11.80;;;;;;5070853;28;20033;-74
2022/05/04 13:47:56;;;;;;;4.00;2.47;;;37.80;12.50;;;;;;5072892;28;20090;-79
2022/05/04 13:55:56;;;;;;;5.22;2.00;;;36.70;14.30;;;;;;5071122;28;20051;-79
2022/05/04 13:58:29;;;;;;;3.75;1.60;;;36.60;14.10;;;;;;5072094;28;20431;-74
2022/05/04 14:00:57;;;;;;;3.85;1.90;;;36.60;13.10;;;;;;5074779;28;20123;-79
2022/05/04 14:03:24;;;;;;;7.18;2.03;;;36.60;13.70;;;;;;5076336;28;20050;-75
2022/05/04 14:05:50;;;;;;;7.55;2.00;;;36.60;14.00;;;;;;5074659;28;20034;-79
2022/05/04 14:08:19;;;;;;;9.45;2.10;;;36.80;14.00;;;;;;5076210;28;20393;-79